Phoenix, Arizona
Traffic Map
Current Weather Conditions
Phoenix, Arizona
Clear
Clear
93°
Feels Like: 93°
Wind Chill: 93° Ceiling: Unl
Heat Index: 93° Visibility: 10mi
Dew Point: 15° Wind: 6mph
Humidity: 6% Direction: ° ()
Pressure: 29.93in Gusts: 0mph
Raw Report DataKPHX 282351Z VRB05KT 10SM CLR 34/M09 A2993 RMK AO2 SLP118 T03391094 10350 20283 56022
Traffic Incident Summary
Active as of:
Severity:
Category:
InformationThere was an issue retrieving the traffic information for this location. Please try a different location or try again shortly.
Advertisements
Track Severe Weather on mobile